Time;durP1;ratioP1;P1;durP2;ratioP2;P2;SDS_P1;SDS_P2;PMS_P1;PMS_P2;Temp;Humidity;BMP_temperature;BMP_pressure;BME280_temperature;BME280_humidity;BME280_pressure;Samples;Min_cycle;Max_cycle;Signal;HPM_P1;HPM_P2
2022/08/12 00:43:34;;;;;;;16.55;14.40;;;;;;;19.37;100.00;100321.45;1733768;82;21093;-67
2022/08/12 00:48:44;;;;;;;21.10;14.78;;;;;;;19.34;100.00;100321.66;1734195;82;21031;-68
2022/08/12 00:51:11;;;;;;;16.82;13.35;;;;;;;19.44;100.00;100321.39;1734047;82;21057;-67
2022/08/12 00:53:37;;;;;;;20.62;14.03;;;;;;;19.46;100.00;100323.48;1734441;82;21026;-68
2022/08/12 00:56:05;;;;;;;22.37;13.78;;;;;;;19.45;100.00;100328.92;1734283;82;21600;-67
2022/08/12 00:58:33;;;;;;;15.43;13.83;;;;;;;19.41;100.00;100330.94;1734306;82;21600;-67
2022/08/12 01:01:06;;;;;;;18.92;13.55;;;;;;;19.39;100.00;100329.34;1733994;82;21109;-67
2022/08/12 01:11:56;;;;;;;22.48;13.65;;;;;;;19.39;100.00;100334.69;1734196;82;21168;-68
2022/08/12 01:14:23;;;;;;;19.77;13.32;;;;;;;19.36;100.00;100331.75;1734300;82;21074;-68
2022/08/12 01:16:51;;;;;;;18.98;13.75;;;;;;;19.33;100.00;100325.30;1734108;82;21498;-67
2022/08/12 01:19:23;;;;;;;21.20;14.35;;;;;;;19.32;100.00;100326.24;1734058;82;21557;-68
2022/08/12 01:22:24;;;;;;;16.48;13.10;;;;;;;19.32;100.00;100328.92;1734031;82;21030;-69
2022/08/12 01:25:17;;;;;;;17.75;13.45;;;;;;;19.29;100.00;100329.98;1718761;82;21608;-67
2022/08/12 01:27:48;;;;;;;18.20;13.72;;;;;;;19.27;100.00;100328.39;1732054;82;21019;-69
2022/08/12 01:30:18;;;;;;;19.40;13.70;;;;;;;19.27;100.00;100329.73;1734566;82;21046;-67
2022/08/12 01:32:48;;;;;;;19.42;14.45;;;;;;;19.27;100.00;100321.72;1733924;82;21112;-68
2022/08/12 01:35:16;;;;;;;17.47;14.87;;;;;;;19.31;100.00;100332.56;1734729;82;21081;-67
2022/08/12 01:37:59;;;;;;;24.85;14.63;;;;;;;19.30;100.00;100329.50;1734100;82;21020;-67
2022/08/12 01:40:35;;;;;;;20.48;14.95;;;;;;;19.31;100.00;100329.89;1734282;82;21034;-68
2022/08/12 01:43:09;;;;;;;20.90;15.25;;;;;;;19.29;100.00;100323.80;1734098;82;21026;-67
2022/08/12 01:45:45;;;;;;;17.35;14.47;;;;;;;19.28;100.00;100330.97;1734375;82;21089;-69
2022/08/12 01:49:02;;;;;;;19.62;14.87;;;;;;;19.29;100.00;100326.47;1734127;81;21378;-67
2022/08/12 01:51:39;;;;;;;19.80;15.35;;;;;;;19.32;100.00;100332.92;1734011;82;21809;-68
2022/08/12 01:54:12;;;;;;;15.78;13.95;;;;;;;19.32;100.00;100332.92;1733909;82;21264;-68
2022/08/12 01:57:00;;;;;;;23.60;13.95;;;;;;;19.34;100.00;100346.17;1734112;81;21033;-68
2022/08/12 01:59:48;;;;;;;19.17;13.00;;;;;;;19.30;100.00;100354.87;1713142;82;21549;-67
2022/08/12 02:02:20;;;;;;;15.03;12.70;;;;;;;19.32;100.00;100356.95;1734085;82;21077;-68
2022/08/12 02:11:33;;;;;;;15.20;12.82;;;;;;;19.35;100.00;100339.41;1712182;82;21012;-68
2022/08/12 02:14:47;;;;;;;16.40;13.45;;;;;;;19.36;100.00;100341.09;1734133;82;21574;-68
2022/08/12 02:17:37;;;;;;;16.25;13.28;;;;;;;19.36;100.00;100340.25;1698903;84;21559;-66
2022/08/12 02:20:26;;;;;;;17.67;13.48;;;;;;;19.34;100.00;100345.69;1694086;84;21183;-68
2022/08/12 02:22:53;;;;;;;21.60;12.93;;;;;;;19.33;100.00;100351.16;1694463;84;21066;-68
2022/08/12 02:25:40;;;;;;;20.37;14.28;;;;;;;19.33;100.00;100353.34;1694294;84;21312;-69
2022/08/12 02:28:06;;;;;;;17.17;12.55;;;;;;;19.31;100.00;100357.08;1694348;84;21109;-67
2022/08/12 02:30:36;;;;;;;15.53;12.93;;;;;;;19.28;100.00;100359.00;1694484;84;21501;-67
2022/08/12 02:33:05;;;;;;;18.82;13.50;;;;;;;19.27;100.00;100359.95;1694442;84;21725;-67
2022/08/12 02:35:34;;;;;;;15.23;13.50;;;;;;;19.26;100.00;100355.58;1694188;84;21096;-68
2022/08/12 02:38:08;;;;;;;16.85;13.03;;;;;;;19.24;100.00;100347.30;1694654;84;21069;-67
2022/08/12 02:40:37;;;;;;;18.32;12.75;;;;;;;19.22;100.00;100350.08;1693993;84;21100;-67
2022/08/12 02:43:15;;;;;;;14.25;12.43;;;;;;;19.22;100.00;100357.23;1694563;84;21639;-68
2022/08/12 02:45:50;;;;;;;16.23;13.75;;;;;;;19.22;100.00;100355.41;1694250;84;21211;-68
2022/08/12 02:48:49;;;;;;;18.15;13.18;;;;;;;19.19;100.00;100347.62;1694393;84;21155;-70
2022/08/12 02:51:32;;;;;;;22.15;13.50;;;;;;;19.18;100.00;100347.72;1694267;84;21064;-67
2022/08/12 02:54:02;;;;;;;16.32;13.40;;;;;;;19.15;100.00;100345.28;1693169;84;21057;-66
2022/08/12 02:56:29;;;;;;;19.05;14.28;;;;;;;19.13;100.00;100339.19;1694422;84;21038;-68
2022/08/12 02:59:00;;;;;;;17.52;12.65;;;;;;;19.12;100.00;100342.80;1694524;84;21158;-69
2022/08/12 03:01:32;;;;;;;19.90;13.32;;;;;;;19.11;100.00;100341.11;1693399;84;21081;-67
2022/08/12 03:04:01;;;;;;;19.12;14.35;;;;;;;19.10;100.00;100346.08;1714085;82;21128;-67
2022/08/12 03:06:44;;;;;;;15.38;13.75;;;;;;;19.08;100.00;100348.36;1715245;83;21614;-68
2022/08/12 03:09:13;;;;;;;22.10;13.98;;;;;;;19.05;100.00;100346.41;1715641;83;21064;-66
2022/08/12 03:11:45;;;;;;;26.93;15.60;;;;;;;19.03;100.00;100341.16;1715475;83;21144;-70
2022/08/12 03:14:13;;;;;;;19.23;14.98;;;;;;;19.04;100.00;100342.86;1715010;83;21091;-69
2022/08/12 03:16:41;;;;;;;21.45;15.90;;;;;;;19.03;100.00;100334.48;1719892;83;21048;-68
2022/08/12 03:19:07;;;;;;;22.27;15.13;;;;;;;19.03;100.00;100335.82;1691164;84;21124;-68
2022/08/12 03:21:37;;;;;;;21.27;13.83;;;;;;;19.02;100.00;100334.58;1685511;85;21047;-68
2022/08/12 03:24:06;;;;;;;18.25;14.33;;;;;;;19.01;100.00;100328.88;1701513;84;21146;-67
2022/08/12 03:26:34;;;;;;;20.90;14.03;;;;;;;19.00;100.00;100324.48;1719786;83;21084;-68
2022/08/12 03:29:05;;;;;;;23.00;14.38;;;;;;;18.98;100.00;100320.61;1691272;84;21572;-67
2022/08/12 03:31:32;;;;;;;17.90;13.32;;;;;;;18.99;100.00;100320.97;1685720;85;21059;-68
2022/08/12 03:34:08;;;;;;;18.77;14.45;;;;;;;19.01;100.00;100324.39;1685560;85;21064;-68
2022/08/12 03:36:37;;;;;;;15.65;13.43;;;;;;;19.05;100.00;100327.23;1685657;85;21215;-68
2022/08/12 03:39:24;;;;;;;18.40;14.43;;;;;;;19.10;100.00;100335.41;1701304;84;21065;-68
2022/08/12 03:42:01;;;;;;;16.77;13.60;;;;;;;19.11;100.00;100341.11;1719049;83;21041;-67
2022/08/12 04:01:57;;;;;;;16.95;13.13;;;;;;;19.47;100.00;100339.86;1701999;84;21615;-68
2022/08/12 04:04:32;;;;;;;18.95;13.62;;;;;;;19.44;100.00;100338.75;1701721;84;21240;-68
2022/08/12 04:06:58;;;;;;;15.23;12.93;;;;;;;19.41;100.00;100344.29;1719699;83;21052;-68
2022/08/12 04:09:25;;;;;;;16.95;12.93;;;;;;;19.40;100.00;100343.93;1719927;83;21080;-67
2022/08/12 04:14:37;;;;;;;16.57;12.68;;;;;;;19.39;100.00;100351.55;1719873;83;21107;-68
2022/08/12 04:17:03;;;;;;;18.20;13.10;;;;;;;19.39;100.00;100344.88;1720147;83;21010;-68
2022/08/12 04:19:31;;;;;;;15.50;13.00;;;;;;;19.39;100.00;100344.88;1719614;83;21005;-68
2022/08/12 04:21:58;;;;;;;17.30;13.95;;;;;;;19.39;100.00;100346.21;1719689;83;21068;-68
2022/08/12 04:24:25;;;;;;;16.65;13.75;;;;;;;19.42;100.00;100344.68;1719744;83;21083;-69
2022/08/12 04:26:52;;;;;;;16.48;13.40;;;;;;;19.45;100.00;100333.77;1719805;83;21017;-68
2022/08/12 04:29:21;;;;;;;16.95;12.90;;;;;;;19.57;100.00;100331.20;1719605;83;21263;-68
2022/08/12 04:31:48;;;;;;;15.38;13.58;;;;;;;19.67;100.00;100333.59;1719854;83;21100;-68
2022/08/12 04:34:15;;;;;;;16.23;13.38;;;;;;;19.73;100.00;100338.51;1719604;83;21033;-69
2022/08/12 04:36:42;;;;;;;16.87;13.68;;;;;;;19.78;100.00;100328.34;1719732;83;21110;-68
2022/08/12 04:39:10;;;;;;;20.65;13.48;;;;;;;19.86;100.00;100323.30;1720234;83;21084;-68
2022/08/12 04:41:38;;;;;;;14.63;13.13;;;;;;;19.95;100.00;100332.48;1719801;83;21225;-68
2022/08/12 04:44:05;;;;;;;16.02;12.78;;;;;;;20.16;100.00;100339.40;1719621;83;21520;-68
2022/08/12 04:46:33;;;;;;;16.55;11.90;;;;;;;20.61;100.00;100334.76;1719848;83;21036;-71
2022/08/12 04:49:01;;;;;;;12.70;11.25;;;;;;;21.15;100.00;100337.70;1720045;83;21580;-68
2022/08/12 04:51:28;;;;;;;12.82;10.93;;;;;;;21.70;100.00;100348.59;1720091;83;21060;-70
2022/08/12 04:53:55;;;;;;;15.90;10.60;;;;;;;22.24;100.00;100354.98;1701091;83;21892;-69
2022/08/12 04:56:22;;;;;;;14.80;10.20;;;;;;;22.72;100.00;100345.16;1691139;84;21024;-68
2022/08/12 04:58:49;;;;;;;12.63;9.75;;;;;;;23.20;100.00;100331.22;1691030;84;21076;-69
2022/08/12 05:01:17;;;;;;;10.23;9.23;;;;;;;23.58;100.00;100331.05;1691063;84;21103;-68
2022/08/12 05:03:43;;;;;;;10.13;8.98;;;;;;;23.93;100.00;100323.55;1685401;84;21155;-68
2022/08/12 05:06:10;;;;;;;11.53;8.85;;;;;;;24.21;100.00;100311.13;1718318;83;21146;-69
2022/08/12 05:08:36;;;;;;;14.53;8.68;;;;;;;24.57;100.00;100315.47;1718259;83;21069;-69
2022/08/12 05:11:04;;;;;;;13.30;8.90;;;;;;;25.00;100.00;100327.10;1718503;83;21034;-69
2022/08/12 05:13:38;;;;;;;13.48;8.40;;;;;;;25.35;99.94;100322.07;1718123;83;22198;-69
2022/08/12 05:16:06;;;;;;;10.80;8.08;;;;;;;25.68;96.60;100324.20;1718533;83;21069;-68
2022/08/12 05:18:37;;;;;;;9.78;8.05;;;;;;;25.89;94.09;100316.39;1718250;83;22131;-69
2022/08/12 05:21:06;;;;;;;11.75;8.25;;;;;;;25.93;92.47;100317.28;1718571;83;21562;-70
2022/08/12 05:23:35;;;;;;;9.18;8.10;;;;;;;25.87;92.54;100317.88;1718398;83;21093;-69
2022/08/12 05:26:03;;;;;;;10.20;8.68;;;;;;;25.98;92.20;100324.92;1692291;83;21049;-70
2022/08/12 05:28:30;;;;;;;13.20;9.18;;;;;;;26.10;90.08;100323.69;1718404;83;21057;-70
2022/08/12 05:30:57;;;;;;;12.20;8.95;;;;;;;26.10;90.19;100321.50;1718439;83;21228;-69
2022/08/12 05:33:25;;;;;;;10.70;8.55;;;;;;;26.20;89.70;100314.17;1718532;83;21029;-69
2022/08/12 05:35:52;;;;;;;11.57;8.53;;;;;;;26.40;88.58;100308.13;1718211;83;21136;-71
2022/08/12 05:41:17;;;;;;;11.30;8.20;;;;;;;26.81;86.12;100305.80;1718270;83;21081;-68
2022/08/12 05:43:37;;;;;;;14.25;8.83;;;;;;;27.04;85.31;100313.39;1691420;83;21139;-68
2022/08/12 05:46:04;;;;;;;11.97;8.03;;;;;;;27.25;84.10;100314.39;1718279;83;21053;-71
2022/08/12 05:48:31;;;;;;;11.63;8.58;;;;;;;27.35;82.58;100305.13;1718243;83;21017;-70
2022/08/12 05:50:57;;;;;;;12.03;8.08;;;;;;;27.51;81.91;100308.94;1718293;83;21045;-69
2022/08/12 05:53:24;;;;;;;12.45;8.45;;;;;;;27.61;79.03;100308.31;1731341;82;21037;-70
2022/08/12 05:55:52;;;;;;;13.20;8.35;;;;;;;27.72;78.35;100305.31;1748208;82;21085;-69
2022/08/12 05:58:20;;;;;;;13.10;8.20;;;;;;;27.80;75.68;100316.15;1747997;82;21109;-70
2022/08/12 06:00:46;;;;;;;13.60;8.98;;;;;;;27.72;76.03;100312.56;1748355;82;21050;-70
2022/08/12 06:03:16;;;;;;;12.85;9.43;;;;;;;27.38;74.71;100308.88;1745237;82;21070;-69
2022/08/12 06:05:44;;;;;;;11.35;8.83;;;;;;;26.94;76.92;100314.34;1734079;81;21476;-70
2022/08/12 06:08:10;;;;;;;12.55;9.33;;;;;;;26.57;78.18;100322.64;1734062;82;21080;-69
2022/08/12 06:10:37;;;;;;;17.45;10.82;;;;;;;26.19;79.90;100324.63;1734029;82;22123;-68
2022/08/12 06:13:05;;;;;;;15.13;10.43;;;;;;;25.72;81.96;100341.79;1734016;82;21645;-69
2022/08/12 06:18:09;;;;;;;13.75;12.20;;;;;;;24.80;87.89;100320.92;1796508;79;23008;-69
2022/08/12 06:20:35;;;;;;;16.55;12.90;;;;;;;24.52;90.25;100332.55;1755830;81;21037;-69
2022/08/12 06:23:02;;;;;;;20.72;12.10;;;;;;;24.28;91.81;100320.33;1756408;81;21143;-70
2022/08/12 06:25:29;;;;;;;19.17;13.53;;;;;;;24.17;93.83;100337.45;1756612;81;21010;-68
2022/08/12 06:27:58;;;;;;;17.67;14.25;;;;;;;24.08;95.42;100336.44;1756457;81;21003;-69
2022/08/12 06:30:25;;;;;;;18.37;13.22;;;;;;;24.08;96.46;100320.30;1756908;81;21033;-69
2022/08/12 06:32:52;;;;;;;21.27;13.20;;;;;;;24.13;96.13;100332.48;1756183;81;21029;-70
2022/08/12 06:35:19;;;;;;;18.42;12.05;;;;;;;24.27;96.23;100326.69;1756384;81;21511;-69
2022/08/12 06:37:50;;;;;;;15.48;11.70;;;;;;;24.60;95.04;100324.63;1756227;81;21025;-69
2022/08/12 06:42:50;;;;;;;12.28;10.98;;;;;;;25.78;89.96;100317.91;1704187;81;21034;-71
2022/08/12 06:45:18;;;;;;;15.45;10.88;;;;;;;26.45;85.65;100322.00;1756500;81;21522;-69
2022/08/12 06:47:49;;;;;;;11.95;9.68;;;;;;;26.83;83.47;100330.81;1752048;81;21095;-69
2022/08/12 06:50:15;;;;;;;12.50;10.13;;;;;;;27.04;78.55;100320.14;1748043;82;21055;-70
2022/08/12 06:52:43;;;;;;;13.50;10.00;;;;;;;27.09;78.84;100319.16;1748479;82;21109;-70
2022/08/12 06:55:14;;;;;;;14.15;8.98;;;;;;;27.13;78.97;100323.25;1748237;82;21037;-69
2022/08/12 06:57:53;;;;;;;9.90;8.90;;;;;;;27.32;78.29;100317.63;1748558;82;21618;-69
2022/08/12 07:00:22;;;;;;;13.45;8.80;;;;;;;27.71;76.37;100318.48;1748308;82;26218;-69
2022/08/12 07:02:49;;;;;;;11.50;8.30;;;;;;;28.13;74.82;100318.97;1748272;82;21014;-69
2022/08/12 07:05:23;;;;;;;13.88;9.10;;;;;;;28.60;73.76;100314.84;1748211;82;21270;-70
2022/08/12 07:07:46;;;;;;;13.40;8.85;;;;;;;28.95;71.18;100302.77;1747286;82;21026;-69
2022/08/12 07:10:13;;;;;;;12.75;7.78;;;;;;;29.13;68.61;100305.83;1747813;82;21600;-71
2022/08/12 07:12:41;;;;;;;11.35;8.65;;;;;;;29.18;69.73;100303.44;1747878;82;21037;-69
2022/08/12 07:15:08;;;;;;;12.37;8.70;;;;;;;29.47;67.76;100303.69;1735380;82;21341;-69
2022/08/12 07:17:35;;;;;;;10.80;8.35;;;;;;;29.46;65.83;100311.47;1708761;83;21081;-70
2022/08/12 07:20:08;;;;;;;12.20;8.55;;;;;;;29.36;66.29;100305.94;1705705;84;21001;-70
2022/08/12 07:22:35;;;;;;;16.75;8.63;;;;;;;29.10;66.43;100305.64;1705482;84;21085;-69
2022/08/12 07:27:49;;;;;;;12.60;8.53;;;;;;;28.36;69.13;100300.73;1705300;84;21031;-70
2022/08/12 07:30:15;;;;;;;12.07;8.80;;;;;;;28.01;70.33;100307.61;1640040;84;21082;-70
2022/08/12 07:32:46;;;;;;;13.90;9.05;;;;;;;27.75;71.79;100318.51;1704820;84;21037;-69
2022/08/12 07:35:10;;;;;;;12.68;8.68;;;;;;;27.64;72.83;100320.16;1705372;83;21534;-69
2022/08/12 07:37:43;;;;;;;12.88;8.95;;;;;;;27.46;72.47;100310.77;1704920;84;21828;-70
2022/08/12 07:40:10;;;;;;;14.95;9.80;;;;;;;27.30;73.74;100314.75;1704861;84;21640;-69
2022/08/12 07:42:42;;;;;;;16.95;9.58;;;;;;;27.16;75.47;100301.29;1704831;83;21057;-69
2022/08/12 07:45:11;;;;;;;13.78;9.90;;;;;;;27.16;75.03;100298.59;1704887;83;21070;-70
2022/08/12 07:47:42;;;;;;;17.73;9.75;;;;;;;27.13;74.62;100301.63;1705013;84;21054;-70
2022/08/12 07:50:12;;;;;;;12.33;10.00;;;;;;;27.06;75.42;100302.77;1704945;84;21189;-69
2022/08/12 07:52:42;;;;;;;16.20;9.85;;;;;;;27.09;75.52;100297.53;1708759;82;21390;-71
2022/08/12 07:55:11;;;;;;;16.23;9.88;;;;;;;27.08;75.33;100297.17;1734372;82;21058;-69
2022/08/12 07:57:52;;;;;;;12.93;9.68;;;;;;;27.12;74.30;100297.20;1734372;82;21097;-70
2022/08/12 08:00:18;;;;;;;14.35;10.23;;;;;;;27.14;75.47;100293.33;1734361;82;21046;-70
2022/08/12 08:02:45;;;;;;;13.22;10.05;;;;;;;27.22;74.81;100295.28;1734352;82;21758;-70
2022/08/12 08:05:14;;;;;;;13.38;10.08;;;;;;;27.26;74.97;100297.98;1734372;82;21081;-69
2022/08/12 08:07:41;;;;;;;11.38;10.18;;;;;;;27.43;75.20;100287.28;1734210;82;21088;-69
2022/08/12 08:10:09;;;;;;;10.85;9.50;;;;;;;27.64;74.97;100284.14;1734814;82;22115;-70
2022/08/12 08:12:57;;;;;;;11.45;9.90;;;;;;;27.81;73.42;100286.74;1734254;82;21105;-70
2022/08/12 08:15:33;;;;;;;15.72;9.63;;;;;;;28.00;72.23;100288.85;1734384;82;21182;-69
2022/08/12 08:18:01;;;;;;;13.35;9.28;;;;;;;28.14;72.27;100288.19;1739726;81;21045;-69
2022/08/12 08:20:36;;;;;;;16.67;9.65;;;;;;;28.38;71.82;100284.64;1742442;82;21066;-69
2022/08/12 08:23:07;;;;;;;12.73;9.50;;;;;;;28.61;71.05;100294.33;1742264;81;21046;-68
2022/08/12 08:25:37;;;;;;;12.07;9.70;;;;;;;28.95;70.15;100286.50;1742403;81;21120;-70
2022/08/12 08:28:12;;;;;;;13.35;8.93;;;;;;;29.17;68.32;100284.10;1742489;81;21792;-70
2022/08/12 08:30:42;;;;;;;14.23;9.70;;;;;;;29.24;68.67;100283.73;1742802;81;21109;-70
2022/08/12 08:33:10;;;;;;;10.38;9.00;;;;;;;29.32;68.28;100281.53;1742405;82;21019;-71
2022/08/12 08:35:44;;;;;;;13.43;9.13;;;;;;;29.41;68.12;100284.03;1742511;82;21062;-69
2022/08/12 08:38:14;;;;;;;15.13;9.63;;;;;;;29.63;66.26;100281.06;1742240;82;21097;-73
2022/08/12 08:43:28;;;;;;;18.05;8.80;;;;;;;30.67;63.09;100264.43;1742166;82;20987;-69
2022/08/12 08:45:55;;;;;;;10.20;9.23;;;;;;;30.67;63.09;100264.43;1742322;82;21038;-71
2022/08/12 08:48:23;;;;;;;11.73;9.05;;;;;;;31.00;62.47;100274.47;1742268;82;21825;-70
2022/08/12 08:50:51;;;;;;;14.47;9.00;;;;;;;31.17;61.21;100265.61;1742462;82;21578;-71
2022/08/12 08:53:17;;;;;;;14.30;9.50;;;;;;;31.45;57.58;100269.04;1730716;82;22149;-70
2022/08/12 08:55:44;;;;;;;10.63;8.80;;;;;;;31.74;53.33;100268.16;1712781;83;21593;-69
2022/08/12 08:58:10;;;;;;;14.40;9.03;;;;;;;31.65;53.34;100275.58;1712844;83;21136;-70
2022/08/12 09:00:42;;;;;;;12.47;9.00;;;;;;;31.41;54.31;100277.28;1712803;83;21058;-69
2022/08/12 09:03:06;;;;;;;15.85;9.18;;;;;;;31.13;54.98;100271.95;1712155;83;21089;-69
2022/08/12 09:05:33;;;;;;;14.25;8.40;;;;;;;30.94;56.39;100261.61;1712565;83;21202;-71
2022/08/12 09:08:02;;;;;;;14.65;9.00;;;;;;;30.97;57.21;100263.98;1712464;83;21121;-70
2022/08/12 09:10:29;;;;;;;11.75;8.33;;;;;;;31.26;56.36;100267.72;1712672;83;21128;-70
2022/08/12 09:15:41;;;;;;;10.85;8.18;;;;;;;31.78;53.07;100276.27;1712506;83;22068;-69
2022/08/12 09:18:10;;;;;;;13.10;9.65;;;;;;;32.10;52.50;100289.13;1716150;83;21242;-69
2022/08/12 09:20:38;;;;;;;12.60;9.43;;;;;;;32.20;50.42;100305.98;1718106;83;21624;-70
2022/08/12 09:23:06;;;;;;;14.87;9.70;;;;;;;31.86;51.20;100312.89;1718469;83;21089;-69
2022/08/12 09:25:34;;;;;;;19.50;9.38;;;;;;;31.20;52.38;100310.63;1718306;83;21049;-69
2022/08/12 09:28:01;;;;;;;17.95;9.93;;;;;;;30.65;54.08;100317.60;1718325;83;21124;-70
2022/08/12 09:30:29;;;;;;;17.65;9.90;;;;;;;30.16;55.89;100324.75;1718423;83;21089;-70
2022/08/12 09:32:55;;;;;;;15.43;9.83;;;;;;;29.57;57.15;100331.95;1718053;83;21057;-70
2022/08/12 09:35:43;;;;;;;16.15;10.98;;;;;;;29.07;58.91;100336.66;1718510;83;21358;-69
2022/08/12 09:38:15;;;;;;;15.60;9.98;;;;;;;28.63;60.93;100328.87;1718082;83;21037;-70
2022/08/12 09:40:40;;;;;;;24.70;10.80;;;;;;;28.33;62.40;100318.67;1718715;82;21057;-70
2022/08/12 09:45:52;;;;;;;13.68;11.43;;;;;;;27.89;64.82;100350.05;1718141;83;21080;-70
2022/08/12 09:48:18;;;;;;;12.07;10.82;;;;;;;27.71;66.64;100346.89;1718447;83;21045;-70
2022/08/12 09:50:49;;;;;;;18.77;11.22;;;;;;;27.49;67.06;100344.75;1718096;83;21568;-70
2022/08/12 09:53:23;;;;;;;14.98;11.00;;;;;;;27.32;68.21;100341.13;1729534;82;21089;-69
2022/08/12 09:55:55;;;;;;;17.10;11.35;;;;;;;27.22;69.55;100334.97;1748149;82;21244;-70
2022/08/12 09:58:28;;;;;;;20.08;11.83;;;;;;;27.13;70.09;100332.70;1748076;82;21022;-69
2022/08/12 10:01:00;;;;;;;17.30;11.18;;;;;;;27.05;70.67;100340.75;1748039;82;21120;-70
2022/08/12 10:03:30;;;;;;;17.25;11.40;;;;;;;26.94;71.86;100340.02;1748134;82;21030;-69
2022/08/12 10:05:57;;;;;;;21.45;12.78;;;;;;;26.81;72.53;100337.38;1748077;82;21680;-70
2022/08/12 10:08:29;;;;;;;18.50;12.45;;;;;;;26.67;73.88;100333.38;1747775;82;21326;-70
2022/08/12 10:13:42;;;;;;;17.27;12.35;;;;;;;26.58;75.01;100340.05;1748092;82;21069;-70
2022/08/12 10:16:16;;;;;;;16.50;11.78;;;;;;;26.54;75.52;100345.89;1748264;82;21014;-70
2022/08/12 10:18:44;;;;;;;16.37;11.45;;;;;;;26.56;75.78;100351.51;1747960;82;21064;-70
2022/08/12 10:21:14;;;;;;;14.00;12.10;;;;;;;26.61;75.87;100354.25;1748054;82;23255;-69
2022/08/12 10:23:45;;;;;;;21.15;12.33;;;;;;;26.64;75.63;100348.53;1748121;82;21029;-71
2022/08/12 10:31:44;;;;;;;16.02;12.18;;;;;;;26.56;76.75;100365.52;1748443;82;21043;-70
2022/08/12 10:34:16;;;;;;;18.20;11.68;;;;;;;26.63;76.77;100365.75;1748082;82;21600;-71
2022/08/12 10:36:41;;;;;;;13.72;11.48;;;;;;;26.64;76.71;100363.39;1747423;82;23527;-70
2022/08/12 10:39:15;;;;;;;17.07;11.68;;;;;;;26.64;76.57;100359.34;1748151;82;21652;-71
2022/08/12 10:44:27;;;;;;;22.15;12.70;;;;;;;26.70;76.70;100351.97;1748022;82;21037;-72
2022/08/12 10:46:55;;;;;;;14.98;12.50;;;;;;;26.70;76.79;100355.52;1748341;82;21096;-69
2022/08/12 10:49:27;;;;;;;13.72;11.83;;;;;;;26.74;77.80;100352.01;1747953;82;21151;-69
2022/08/12 10:51:54;;;;;;;17.35;11.78;;;;;;;26.80;76.52;100359.47;1748453;82;21671;-70
2022/08/12 10:54:21;;;;;;;16.37;11.83;;;;;;;26.86;76.28;100354.80;1723481;82;21549;-71
2022/08/12 10:56:48;;;;;;;19.75;12.43;;;;;;;26.88;76.85;100350.60;1718349;83;21639;-69
2022/08/12 10:59:16;;;;;;;18.55;11.93;;;;;;;26.96;76.35;100340.71;1718205;83;21192;-71
2022/08/12 11:01:43;;;;;;;22.80;12.58;;;;;;;26.96;76.06;100338.00;1718150;83;21068;-70
2022/08/12 11:04:12;;;;;;;17.48;12.10;;;;;;;26.95;76.49;100344.40;1735500;82;21029;-70
2022/08/12 11:06:49;;;;;;;24.85;12.53;;;;;;;26.84;76.15;100335.19;1748413;82;21140;-71
2022/08/12 11:09:36;;;;;;;23.32;11.60;;;;;;;26.71;76.16;100345.55;1748223;82;21089;-70
2022/08/12 11:12:05;;;;;;;14.05;12.53;;;;;;;26.54;76.80;100348.11;1748192;82;21153;-70
2022/08/12 11:14:33;;;;;;;13.32;11.93;;;;;;;26.41;77.31;100349.47;1748391;82;21247;-69
2022/08/12 11:17:05;;;;;;;18.62;12.90;;;;;;;26.33;76.89;100348.39;1748274;82;21021;-69
2022/08/12 11:19:34;;;;;;;17.17;13.00;;;;;;;26.24;77.30;100336.32;1748217;81;21300;-70
2022/08/12 11:22:01;;;;;;;22.22;13.15;;;;;;;26.15;76.97;100326.78;1748215;82;20998;-70
2022/08/12 11:24:28;;;;;;;18.42;12.90;;;;;;;26.09;77.69;100324.70;1748332;82;21235;-70
2022/08/12 11:26:54;;;;;;;19.12;12.25;;;;;;;26.03;77.34;100321.26;1748535;82;21081;-71
2022/08/12 11:29:24;;;;;;;20.80;12.78;;;;;;;25.97;77.99;100320.51;1748199;82;21038;-69
2022/08/12 11:31:51;;;;;;;16.00;13.08;;;;;;;25.94;78.33;100316.77;1748209;82;21081;-71
2022/08/12 11:34:18;;;;;;;25.05;13.45;;;;;;;25.94;78.83;100323.52;1748017;82;21077;-71
2022/08/12 11:36:56;;;;;;;15.03;12.60;;;;;;;25.92;79.98;100325.52;1748345;82;21798;-69
2022/08/12 11:39:22;;;;;;;18.75;13.43;;;;;;;25.89;80.34;100332.58;1747944;82;21711;-70
2022/08/12 11:41:49;;;;;;;21.17;14.15;;;;;;;25.84;80.85;100329.45;1748043;82;21021;-70
2022/08/12 11:44:15;;;;;;;17.15;12.90;;;;;;;25.80;81.07;100323.50;1748186;82;21033;-70
2022/08/12 11:46:42;;;;;;;25.20;13.68;;;;;;;25.77;81.63;100328.33;1748151;82;21029;-70
2022/08/12 11:49:10;;;;;;;24.27;12.80;;;;;;;25.77;82.04;100322.94;1748203;82;21217;-69
2022/08/12 11:51:38;;;;;;;19.98;12.73;;;;;;;25.75;82.44;100326.65;1748009;82;21561;-70
2022/08/12 11:54:05;;;;;;;21.45;13.08;;;;;;;25.72;82.90;100327.43;1726981;82;21042;-69
2022/08/12 11:56:32;;;;;;;24.30;13.28;;;;;;;25.72;83.70;100327.43;1718636;83;21097;-70
2022/08/12 11:58:59;;;;;;;15.68;12.47;;;;;;;25.68;83.72;100324.20;1718523;83;21550;-70
2022/08/12 12:01:25;;;;;;;16.60;13.45;;;;;;;25.70;83.41;100331.65;1718601;83;21823;-71
2022/08/12 12:03:52;;;;;;;16.30;12.68;;;;;;;25.72;83.62;100333.70;1741150;82;21017;-72
2022/08/12 12:06:23;;;;;;;22.22;14.53;;;;;;;25.78;83.84;100338.98;1748582;82;21506;-69
2022/08/12 12:08:48;;;;;;;21.00;13.15;;;;;;;25.82;83.79;100351.17;1747308;82;21029;-69
2022/08/12 12:11:14;;;;;;;22.25;13.32;;;;;;;25.90;83.80;100343.70;1748501;82;21032;-70
2022/08/12 12:13:40;;;;;;;17.77;13.40;;;;;;;26.01;83.57;100346.19;1748273;82;21201;-69
2022/08/12 12:16:07;;;;;;;16.70;12.07;;;;;;;26.16;82.59;100352.78;1748203;82;21565;-70
2022/08/12 12:18:36;;;;;;;18.48;13.25;;;;;;;26.27;81.44;100350.84;1742628;81;21061;-69
2022/08/12 12:21:05;;;;;;;18.80;12.50;;;;;;;26.31;81.12;100360.34;1734243;82;21042;-71
2022/08/12 12:23:33;;;;;;;17.90;12.47;;;;;;;26.32;80.54;100360.20;1734460;82;21093;-70
2022/08/12 12:26:05;;;;;;;17.62;13.10;;;;;;;26.34;80.83;100357.33;1734122;82;21243;-70
2022/08/12 12:28:34;;;;;;;17.50;12.73;;;;;;;26.42;80.54;100350.67;1734134;82;21089;-69
2022/08/12 12:31:02;;;;;;;19.10;12.60;;;;;;;26.46;79.68;100348.02;1734341;82;21046;-70
2022/08/12 12:33:28;;;;;;;22.60;12.53;;;;;;;26.50;79.68;100344.02;1734220;82;21065;-70
2022/08/12 12:35:55;;;;;;;17.05;12.45;;;;;;;26.57;80.17;100345.13;1734528;82;21968;-70
2022/08/12 12:38:22;;;;;;;14.90;12.43;;;;;;;26.67;78.72;100338.78;1734113;82;21519;-70
2022/08/12 12:40:49;;;;;;;20.88;12.50;;;;;;;26.71;78.53;100329.34;1734262;82;21035;-69
2022/08/12 12:43:15;;;;;;;16.82;13.10;;;;;;;26.76;78.53;100332.45;1734217;82;21542;-70
2022/08/12 12:45:43;;;;;;;15.75;12.50;;;;;;;26.85;78.86;100326.09;1734278;82;21585;-71
2022/08/12 12:48:13;;;;;;;20.57;12.58;;;;;;;26.94;78.05;100325.16;1734235;82;21624;-71
2022/08/12 12:50:43;;;;;;;18.05;12.03;;;;;;;27.09;76.65;100327.27;1734682;82;21117;-70
2022/08/12 12:53:11;;;;;;;;;;;;;;;27.13;74.63;100332.70;1727081;82;21131;-70
2022/08/12 12:55:38;;;;;;;14.80;11.45;;;;;;;27.11;74.37;100338.77;1709997;82;20207;-69
2022/08/12 12:58:04;;;;;;;14.07;11.12;;;;;;;27.11;75.12;100335.56;1733994;82;21554;-70
2022/08/12 13:00:32;;;;;;;19.57;11.65;;;;;;;27.22;74.87;100335.84;1733858;82;21550;-70
2022/08/12 13:02:58;;;;;;;12.50;10.45;;;;;;;27.30;73.68;100330.46;1713537;82;21260;-70
2022/08/12 13:05:31;;;;;;;21.93;12.03;;;;;;;27.29;73.15;100330.64;1734135;82;21003;-70
2022/08/12 13:08:00;;;;;;;16.75;11.45;;;;;;;27.30;73.57;100329.11;1734406;82;21099;-70
2022/08/12 13:10:28;;;;;;;20.08;10.80;;;;;;;27.35;72.14;100329.47;1734073;82;21530;-71
2022/08/12 13:12:54;;;;;;;16.42;11.43;;;;;;;27.38;72.29;100314.30;1734258;82;21518;-71